Time;durP1;ratioP1;P1;durP2;ratioP2;P2;SDS_P1;SDS_P2;PMS_P1;PMS_P2;Temp;Humidity;BMP_temperature;BMP_pressure;BME280_temperature;BME280_humidity;BME280_pressure;Samples;Min_cycle;Max_cycle;Signal;HPM_P1;HPM_P2
2022/03/26 00:00:18;;;;;;;15.15;6.82;;;;;;;9.65;38.00;100829.75;4456165;32;34309;-81
2022/03/26 00:02:46;;;;;;;18.42;7.68;;;;;;;9.52;38.29;100827.53;4456326;32;34757;-81
2022/03/26 00:05:15;;;;;;;17.60;7.45;;;;;;;9.72;37.83;100830.75;4456130;32;34126;-81
2022/03/26 00:07:43;;;;;;;16.05;7.47;;;;;;;9.82;37.76;100831.38;4468951;32;33658;-81
2022/03/26 00:10:12;;;;;;;14.70;7.03;;;;;;;9.76;37.85;100823.84;4430706;32;32992;-81
2022/03/26 00:12:39;;;;;;;18.08;6.55;;;;;;;9.69;38.09;100817.41;4455702;32;33562;-80
2022/03/26 00:15:08;;;;;;;12.68;6.55;;;;;;;9.53;38.51;100835.59;4456138;32;33151;-81
2022/03/26 00:17:37;;;;;;;17.48;6.82;;;;;;;9.32;39.16;100843.50;4456236;32;34684;-81
2022/03/26 00:20:06;;;;;;;12.50;6.95;;;;;;;9.36;39.08;100841.25;4455791;32;32958;-81
2022/03/26 00:22:33;;;;;;;13.73;6.97;;;;;;;9.47;38.68;100841.75;4455759;32;32502;-81
2022/03/26 00:25:02;;;;;;;19.00;7.43;;;;;;;9.43;38.92;100840.41;4456228;32;31862;-81
2022/03/26 00:27:30;;;;;;;16.33;8.05;;;;;;;9.40;39.10;100845.38;4468454;32;34594;-81
2022/03/26 00:29:58;;;;;;;16.73;7.70;;;;;;;9.40;38.87;100846.22;4455948;32;32958;-81
2022/03/26 00:32:28;;;;;;;15.30;7.55;;;;;;;9.37;39.13;100841.09;4455835;32;33779;-81
2022/03/26 00:34:57;;;;;;;16.30;8.05;;;;;;;9.34;39.27;100841.44;4442566;32;31731;-81
2022/03/26 00:37:25;;;;;;;18.58;8.35;;;;;;;9.16;39.72;100843.50;4443341;32;33295;-81
2022/03/26 00:39:53;;;;;;;14.65;8.20;;;;;;;9.11;39.98;100838.53;4455490;32;34209;-80
2022/03/26 00:42:25;;;;;;;24.48;8.90;;;;;;;9.21;39.62;100833.75;4455613;32;34151;-81
2022/03/26 00:44:52;;;;;;;18.05;8.43;;;;;;;9.32;39.39;100837.16;4455459;32;32693;-81
2022/03/26 00:47:20;;;;;;;17.62;8.40;;;;;;;9.23;39.63;100833.56;4455640;32;33805;-81
2022/03/26 00:49:51;;;;;;;19.65;9.02;;;;;;;9.21;39.69;100843.84;4455651;32;33698;-81
2022/03/26 00:52:21;;;;;;;17.05;8.63;;;;;;;9.21;39.57;100839.22;4468340;32;33886;-81
2022/03/26 00:54:49;;;;;;;17.05;8.82;;;;;;;9.23;39.82;100839.91;4455613;32;32024;-81
2022/03/26 00:57:17;;;;;;;18.67;8.43;;;;;;;9.25;39.82;100837.84;4455787;32;34666;-81
2022/03/26 00:59:45;;;;;;;23.05;9.73;;;;;;;9.07;40.36;100837.19;4455541;32;34308;-81
2022/03/26 01:02:13;;;;;;;19.30;8.52;;;;;;;8.99;40.43;100830.84;4455696;32;32442;-81
2022/03/26 01:04:40;;;;;;;16.95;8.93;;;;;;;9.13;40.21;100832.88;4455764;32;33225;-81
2022/03/26 01:07:08;;;;;;;20.05;9.40;;;;;;;9.16;40.25;100835.28;4455646;32;32188;-81
2022/03/26 01:09:36;;;;;;;17.40;10.00;;;;;;;9.13;40.13;100828.25;4455404;32;33003;-80
2022/03/26 01:12:04;;;;;;;16.20;8.77;;;;;;;9.29;39.66;100830.13;4455330;32;32542;-81
2022/03/26 01:14:32;;;;;;;16.25;8.63;;;;;;;9.03;40.06;100827.59;4455320;32;34085;-81
2022/03/26 01:17:00;;;;;;;17.50;9.23;;;;;;;9.09;39.93;100826.06;4455451;32;32089;-81
2022/03/26 01:19:27;;;;;;;19.33;9.23;;;;;;;8.93;40.56;100826.06;4455499;32;34330;-81
2022/03/26 01:21:57;;;;;;;22.25;9.70;;;;;;;8.98;40.66;100829.16;4468215;32;33989;-81
2022/03/26 01:24:25;;;;;;;16.80;8.45;;;;;;;9.08;40.67;100818.88;4455511;32;34196;-81
2022/03/26 01:26:53;;;;;;;16.45;9.02;;;;;;;9.13;40.53;100822.78;4455415;32;34407;-81
2022/03/26 01:29:20;;;;;;;18.95;9.30;;;;;;;9.14;40.47;100818.16;4455037;32;32883;-81
2022/03/26 01:31:48;;;;;;;19.42;9.27;;;;;;;9.03;40.64;100811.19;4455164;32;32630;-81
2022/03/26 01:34:18;;;;;;;19.10;9.38;;;;;;;9.15;40.52;100819.87;4455238;32;33184;-81
2022/03/26 01:36:48;;;;;;;17.73;9.07;;;;;;;8.98;40.73;100819.06;4468127;32;34733;-80
2022/03/26 01:39:18;;;;;;;15.95;7.87;;;;;;;8.94;40.81;100814.94;4455146;32;34349;-81
2022/03/26 01:41:47;;;;;;;18.10;9.48;;;;;;;9.09;40.56;100815.97;4468140;32;33722;-81
2022/03/26 01:44:15;;;;;;;17.70;8.63;;;;;;;9.05;40.93;100811.00;4455225;32;34436;-81
2022/03/26 01:46:46;;;;;;;15.70;8.13;;;;;;;8.95;41.21;100808.44;4469903;32;34002;-81
2022/03/26 01:49:14;;;;;;;20.58;9.32;;;;;;;9.00;41.06;100810.66;4443260;32;33108;-81
2022/03/26 01:51:42;;;;;;;17.00;8.40;;;;;;;8.92;41.16;100811.53;4456936;32;33870;-80
2022/03/26 01:54:10;;;;;;;15.82;7.55;;;;;;;8.94;41.07;100801.25;4456866;32;33198;-81
2022/03/26 01:56:39;;;;;;;15.43;8.07;;;;;;;8.76;41.61;100808.78;4470010;32;34070;-81
2022/03/26 01:59:08;;;;;;;14.75;7.70;;;;;;;8.85;41.63;100811.34;4469652;32;34289;-81
2022/03/26 02:01:38;;;;;;;16.40;8.02;;;;;;;8.73;41.60;100801.75;4456442;32;33223;-81
2022/03/26 02:04:10;;;;;;;14.60;7.72;;;;;;;8.86;41.31;100804.84;4457233;32;32629;-79
2022/03/26 02:06:39;;;;;;;15.82;8.20;;;;;;;8.79;43.39;100809.28;4457008;32;33670;-81
2022/03/26 02:09:12;;;;;;;14.43;8.20;;;;;;;9.00;42.63;100807.94;4467126;32;35153;-81
2022/03/26 02:11:42;;;;;;;17.10;7.78;;;;;;;8.90;41.80;100811.69;4472679;32;33984;-81
2022/03/26 02:14:13;;;;;;;17.58;8.65;;;;;;;8.84;41.56;100806.91;4472686;32;33146;-82
2022/03/26 02:16:43;;;;;;;16.20;7.80;;;;;;;8.75;41.62;100810.66;4485587;32;32628;-81
2022/03/26 02:19:11;;;;;;;17.15;7.32;;;;;;;8.81;41.47;100800.91;4472654;32;33079;-81
2022/03/26 02:21:41;;;;;;;17.75;8.23;;;;;;;8.51;42.20;100803.25;4472332;32;34183;-81
2022/03/26 02:24:11;;;;;;;15.93;7.18;;;;;;;8.66;42.08;100802.59;4485117;32;34289;-81
2022/03/26 02:26:39;;;;;;;18.08;7.57;;;;;;;8.77;41.73;100805.00;4472334;32;33404;-81
2022/03/26 02:29:12;;;;;;;15.35;7.43;;;;;;;8.64;41.94;100801.91;4472472;32;35325;-81
2022/03/26 02:31:40;;;;;;;15.25;7.75;;;;;;;8.69;41.71;100797.66;4472803;32;33685;-81
2022/03/26 02:34:10;;;;;;;14.35;7.28;;;;;;;8.71;41.65;100802.94;4472003;32;32089;-81
2022/03/26 02:36:37;;;;;;;19.10;8.02;;;;;;;8.61;41.93;100799.50;4459847;32;32234;-81
2022/03/26 02:39:08;;;;;;;14.75;7.72;;;;;;;8.64;41.90;100802.78;4472219;32;34544;-81
2022/03/26 02:41:36;;;;;;;17.90;7.47;;;;;;;8.61;42.02;100789.41;4472418;32;34740;-81
2022/03/26 02:44:04;;;;;;;14.30;7.57;;;;;;;8.53;42.28;100792.16;4471938;32;32394;-81
2022/03/26 02:46:32;;;;;;;18.58;7.57;;;;;;;8.53;42.21;100798.47;4459620;32;33920;-82
2022/03/26 02:48:59;;;;;;;17.02;7.93;;;;;;;8.47;42.27;100795.56;4485349;32;34351;-81
2022/03/26 02:51:27;;;;;;;15.05;7.87;;;;;;;8.40;42.47;100798.12;4471903;32;33631;-82
2022/03/26 02:53:55;;;;;;;13.57;7.25;;;;;;;8.44;42.46;100801.41;4472105;32;33269;-82
2022/03/26 02:56:22;;;;;;;16.60;7.60;;;;;;;8.46;42.52;100802.06;4471421;32;34399;-81
2022/03/26 02:58:50;;;;;;;15.32;7.60;;;;;;;8.46;42.37;100807.53;4484882;32;33098;-81
2022/03/26 03:01:19;;;;;;;15.68;7.97;;;;;;;8.21;43.00;100804.72;4472399;32;34062;-81
2022/03/26 03:03:50;;;;;;;17.45;8.48;;;;;;;8.24;42.92;100804.38;4485491;32;32935;-81
2022/03/26 03:06:18;;;;;;;18.62;8.43;;;;;;;8.13;43.25;100795.63;4459036;32;33166;-81
2022/03/26 03:08:46;;;;;;;16.08;8.10;;;;;;;7.91;43.78;100799.81;4472364;32;33846;-81
2022/03/26 03:11:17;;;;;;;15.07;8.05;;;;;;;7.86;43.98;100802.19;4461333;32;206536;-82
2022/03/26 03:13:47;;;;;;;17.77;7.32;;;;;;;8.09;43.71;100806.03;4466307;32;31778;-81
2022/03/26 03:16:17;;;;;;;15.15;7.20;;;;;;;8.23;43.36;100808.16;4471977;32;34042;-82
2022/03/26 03:18:45;;;;;;;14.93;7.40;;;;;;;8.13;43.36;100804.69;4472530;32;35365;-82
2022/03/26 03:21:18;;;;;;;17.40;8.48;;;;;;;8.16;43.18;100801.62;4472572;32;34782;-81
2022/03/26 03:23:49;;;;;;;21.65;8.52;;;;;;;7.98;43.59;100806.34;4472176;32;33370;-81
2022/03/26 03:26:16;;;;;;;16.90;7.75;;;;;;;7.81;44.15;100807.28;4472082;32;32231;-81
2022/03/26 03:28:44;;;;;;;15.45;7.87;;;;;;;7.74;44.51;100800.78;4459594;32;32944;-81
2022/03/26 03:31:13;;;;;;;15.40;7.70;;;;;;;7.98;43.65;100798.12;4459702;32;32519;-81
2022/03/26 03:33:41;;;;;;;15.13;7.62;;;;;;;8.00;43.76;100808.91;4472017;32;33744;-81
2022/03/26 03:36:08;;;;;;;15.18;7.30;;;;;;;8.13;43.18;100801.97;4472236;32;33904;-81
2022/03/26 03:38:36;;;;;;;18.40;7.53;;;;;;;7.91;43.60;100808.88;4485886;32;35314;-81
2022/03/26 03:41:04;;;;;;;20.58;8.07;;;;;;;7.89;43.65;100804.59;4472274;32;33356;-82
2022/03/26 03:43:31;;;;;;;15.40;7.62;;;;;;;7.77;44.12;100809.53;4472522;32;34200;-81
2022/03/26 03:45:59;;;;;;;17.77;7.40;;;;;;;7.75;44.48;100813.44;4485589;32;33952;-81
2022/03/26 03:48:28;;;;;;;13.93;7.55;;;;;;;7.81;43.93;100801.81;4472318;32;34778;-81
2022/03/26 03:50:55;;;;;;;15.07;8.10;;;;;;;7.72;44.22;100803.69;4472104;32;33356;-82
2022/03/26 03:53:25;;;;;;;14.00;7.15;;;;;;;7.77;44.04;100803.19;4459649;32;31864;-81
2022/03/26 03:55:53;;;;;;;13.35;7.15;;;;;;;7.82;44.01;100798.06;4472253;32;34451;-81
2022/03/26 03:58:21;;;;;;;14.30;7.87;;;;;;;7.76;44.10;100801.50;4471530;32;33640;-81
2022/03/26 04:00:50;;;;;;;17.65;8.10;;;;;;;7.87;43.99;100801.16;4471758;32;32456;-81
2022/03/26 04:03:18;;;;;;;13.70;6.85;;;;;;;7.74;44.20;100800.78;4471857;32;33230;-81
2022/03/26 04:05:45;;;;;;;15.38;7.90;;;;;;;7.52;44.66;100792.13;4471978;32;32321;-81
2022/03/26 04:08:13;;;;;;;17.62;9.48;;;;;;;7.57;44.52;100795.25;4458248;32;33939;-80
2022/03/26 04:10:43;;;;;;;12.35;6.93;;;;;;;7.65;44.59;100790.84;4483960;32;33912;-81
2022/03/26 04:13:11;;;;;;;15.82;7.97;;;;;;;7.65;44.76;100788.97;4471643;32;33230;-81
2022/03/26 04:15:39;;;;;;;15.57;7.18;;;;;;;7.50;44.85;100799.63;4470906;32;32273;-81
2022/03/26 04:18:07;;;;;;;21.08;7.75;;;;;;;7.39;45.22;100793.59;4483776;32;35598;-81
2022/03/26 04:20:35;;;;;;;15.35;7.32;;;;;;;7.62;44.75;100791.16;4471709;32;33703;-81
2022/03/26 04:23:02;;;;;;;14.45;6.87;;;;;;;7.71;44.44;100799.25;4471593;32;33492;-81
2022/03/26 04:25:32;;;;;;;13.45;7.03;;;;;;;7.63;44.53;100803.81;4484599;32;34587;-81
2022/03/26 04:28:01;;;;;;;17.77;8.60;;;;;;;7.53;44.59;100807.50;4471820;32;34097;-82
2022/03/26 04:30:29;;;;;;;15.52;7.72;;;;;;;7.52;44.69;100811.25;4484051;32;34188;-81
2022/03/26 04:32:57;;;;;;;14.30;7.22;;;;;;;7.49;44.87;100805.25;4470965;32;33249;-81
2022/03/26 04:35:26;;;;;;;16.65;7.70;;;;;;;7.40;45.17;100819.87;4471532;32;33549;-82
2022/03/26 04:37:56;;;;;;;20.77;7.85;;;;;;;7.35;45.56;100823.09;4471699;32;32901;-81
2022/03/26 04:40:25;;;;;;;13.65;6.93;;;;;;;7.22;45.97;100819.94;4471848;32;32461;-81
2022/03/26 04:42:53;;;;;;;14.00;7.65;;;;;;;7.40;45.61;100819.87;4484989;32;33153;-82
2022/03/26 04:45:20;;;;;;;16.37;7.72;;;;;;;7.35;45.43;100811.31;4471606;32;34577;-81
2022/03/26 04:47:48;;;;;;;17.55;8.57;;;;;;;7.09;46.28;100817.66;4471329;32;34448;-81
2022/03/26 04:50:19;;;;;;;15.75;8.02;;;;;;;7.31;45.63;100820.84;4471531;32;33892;-81
2022/03/26 04:52:48;;;;;;;13.93;7.47;;;;;;;7.37;45.38;100821.06;4471236;32;33169;-81
2022/03/26 04:55:18;;;;;;;19.12;7.55;;;;;;;7.40;45.32;100815.28;4471399;32;33861;-81
2022/03/26 04:57:51;;;;;;;18.48;7.80;;;;;;;7.53;45.23;100820.31;4484608;32;35146;-81
2022/03/26 05:00:22;;;;;;;14.25;7.30;;;;;;;7.52;45.15;100824.06;4484664;32;34136;-81
2022/03/26 05:02:54;;;;;;;14.38;7.37;;;;;;;7.39;45.33;100818.16;4471586;32;32104;-81
2022/03/26 05:05:22;;;;;;;14.38;7.30;;;;;;;7.44;45.39;100816.66;4471779;32;34632;-81
2022/03/26 05:07:55;;;;;;;15.20;7.40;;;;;;;7.45;45.36;100817.53;4471641;32;35369;-81
2022/03/26 05:10:27;;;;;;;15.60;7.82;;;;;;;7.49;45.36;100827.97;4472015;32;34768;-81
2022/03/26 05:12:57;;;;;;;15.43;7.95;;;;;;;7.59;45.09;100823.25;4471525;32;32615;-81
2022/03/26 05:15:31;;;;;;;13.77;7.97;;;;;;;7.49;45.58;100829.84;4484387;32;34449;-82
2022/03/26 05:17:59;;;;;;;14.87;7.72;;;;;;;7.61;45.39;100834.03;4472007;32;33021;-81
2022/03/26 05:20:29;;;;;;;14.80;7.75;;;;;;;7.46;45.67;100838.38;4471253;32;34551;-79
2022/03/26 05:22:57;;;;;;;19.05;8.85;;;;;;;7.63;45.42;100836.59;4471453;32;32972;-79
2022/03/26 05:25:24;;;;;;;16.12;8.68;;;;;;;7.47;46.04;100840.06;4484359;32;34593;-79
2022/03/26 05:27:53;;;;;;;15.00;8.43;;;;;;;7.60;45.96;100841.38;4471902;32;35233;-79
2022/03/26 05:30:21;;;;;;;17.55;7.75;;;;;;;7.69;46.14;100835.94;4471307;32;34172;-79
2022/03/26 05:32:50;;;;;;;15.75;7.78;;;;;;;7.84;45.96;100847.94;4484771;32;33228;-79
2022/03/26 05:35:18;;;;;;;15.05;8.02;;;;;;;8.06;45.51;100843.78;4472849;32;33774;-79
2022/03/26 05:37:49;;;;;;;17.77;8.32;;;;;;;8.17;45.22;100844.34;4471457;32;32974;-79
2022/03/26 05:40:19;;;;;;;19.17;8.95;;;;;;;8.31;45.01;100844.75;4471197;32;33022;-80
2022/03/26 05:42:48;;;;;;;16.37;8.40;;;;;;;8.33;45.00;100838.13;4484200;32;33299;-80
2022/03/26 05:45:15;;;;;;;16.23;8.02;;;;;;;8.41;45.47;100842.75;4471226;32;33926;-80
2022/03/26 05:47:43;;;;;;;14.68;8.15;;;;;;;8.55;45.21;100839.34;4484304;32;35456;-80
2022/03/26 05:50:12;;;;;;;16.12;8.10;;;;;;;8.76;44.77;100839.72;4470953;32;34119;-80
2022/03/26 05:52:40;;;;;;;14.68;7.32;;;;;;;8.76;45.09;100847.09;4483697;32;33362;-80
2022/03/26 05:55:09;;;;;;;15.02;7.50;;;;;;;8.82;44.93;100836.31;4470876;32;32155;-80
2022/03/26 05:57:36;;;;;;;18.42;8.27;;;;;;;9.09;44.67;100843.34;4470869;32;33927;-80
2022/03/26 06:00:05;;;;;;;17.48;6.70;;;;;;;9.30;44.46;100844.69;4470778;32;34648;-81
2022/03/26 06:02:36;;;;;;;17.10;7.45;;;;;;;9.54;48.14;100848.25;4473759;32;31766;-81
2022/03/26 06:05:05;;;;;;;20.05;7.65;;;;;;;9.70;44.84;100849.25;4460880;32;33358;-80
2022/03/26 06:07:38;;;;;;;16.52;7.72;;;;;;;9.80;46.03;100849.88;4483033;32;35175;-82
2022/03/26 06:10:11;;;;;;;17.15;8.18;;;;;;;9.86;43.88;100841.81;4457524;32;32564;-81
2022/03/26 06:12:44;;;;;;;18.30;8.55;;;;;;;9.95;44.22;100842.66;4458343;32;32484;-80
2022/03/26 06:15:13;;;;;;;18.45;8.52;;;;;;;10.46;42.79;100843.13;4470348;32;32403;-80
2022/03/26 06:18:02;;;;;;;23.33;8.35;;;;;;;10.53;42.47;100841.38;4462191;32;32646;-81
2022/03/26 06:20:33;;;;;;;17.50;9.07;;;;;;;10.58;43.10;100841.69;4470478;32;34621;-81
2022/03/26 06:23:00;;;;;;;23.15;9.23;;;;;;;10.86;42.56;100839.28;4468842;32;33443;-81
2022/03/26 06:25:32;;;;;;;18.05;9.10;;;;;;;11.07;41.78;100842.16;4481332;32;33802;-80
2022/03/26 06:28:00;;;;;;;19.27;10.32;;;;;;;11.62;40.43;100840.13;4467918;32;33047;-81
2022/03/26 06:30:27;;;;;;;20.42;9.38;;;;;;;12.03;39.18;100846.06;4469120;32;33978;-81
2022/03/26 06:32:55;;;;;;;17.95;9.20;;;;;;;12.21;38.18;100835.50;4470614;32;31789;-80
2022/03/26 06:35:24;;;;;;;16.80;9.00;;;;;;;12.53;37.80;100831.44;4447205;32;33585;-81
2022/03/26 06:37:54;;;;;;;19.37;10.27;;;;;;;12.73;38.22;100839.94;4470391;31;34347;-81
2022/03/26 06:40:21;;;;;;;18.25;9.85;;;;;;;13.12;37.90;100837.56;4475131;31;34680;-81
2022/03/26 06:42:49;;;;;;;18.80;9.48;;;;;;;13.56;36.83;100843.94;4475046;31;32081;-80
2022/03/26 06:45:19;;;;;;;17.95;9.60;;;;;;;13.99;37.30;100844.63;4462611;31;33294;-80
2022/03/26 06:47:47;;;;;;;18.65;9.38;;;;;;;14.45;36.01;100840.22;4475178;31;34582;-80
2022/03/26 06:50:14;;;;;;;20.17;10.90;;;;;;;14.78;35.87;100834.81;4474819;31;32461;-80
2022/03/26 06:52:42;;;;;;;20.30;10.43;;;;;;;15.10;36.24;100844.22;4474627;31;33299;-80
2022/03/26 06:55:10;;;;;;;20.77;11.63;;;;;;;15.57;34.67;100841.53;4474833;31;32315;-81
2022/03/26 06:57:41;;;;;;;24.83;10.73;;;;;;;15.39;31.86;100842.97;4474836;31;33060;-81
2022/03/26 07:00:09;;;;;;;20.88;10.77;;;;;;;15.32;31.55;100838.50;4475339;31;34929;-81
2022/03/26 07:02:37;;;;;;;28.50;11.15;;;;;;;15.27;31.71;100841.03;4475139;31;34250;-81
2022/03/26 07:05:06;;;;;;;18.73;10.65;;;;;;;15.62;32.33;100850.84;4487980;31;33986;-80
2022/03/26 07:07:35;;;;;;;21.45;10.13;;;;;;;15.88;32.33;100849.97;4475059;31;34198;-81
2022/03/26 07:10:08;;;;;;;21.83;9.98;;;;;;;15.88;31.28;100847.22;4475235;31;33735;-81
2022/03/26 07:12:36;;;;;;;20.65;11.07;;;;;;;16.33;32.08;100850.06;4462256;31;32830;-80
2022/03/26 07:15:10;;;;;;;25.25;12.63;;;;;;;16.50;29.81;100848.50;4472312;32;32301;-81
2022/03/26 07:17:39;;;;;;;23.08;12.90;;;;;;;17.12;29.61;100852.47;4472020;32;33953;-81
2022/03/26 07:20:09;;;;;;;19.75;10.70;;;;;;;17.47;29.08;100849.22;4459928;32;32292;-81
2022/03/26 07:22:37;;;;;;;22.33;10.60;;;;;;;17.84;30.45;100848.28;4471895;32;33265;-81
2022/03/26 07:25:06;;;;;;;22.60;11.35;;;;;;;17.69;27.33;100845.84;4472371;32;34226;-81
2022/03/26 07:27:52;;;;;;;28.52;16.25;;;;;;;18.20;27.09;100843.84;4472058;32;32911;-80
2022/03/26 07:30:20;;;;;;;26.45;11.95;;;;;;;17.52;27.84;100846.63;4471931;32;32107;-80
2022/03/26 07:32:48;;;;;;;23.15;11.20;;;;;;;17.46;27.49;100842.81;4472243;32;34402;-80
2022/03/26 07:35:16;;;;;;;22.55;11.55;;;;;;;18.04;28.29;100839.75;4472691;32;33431;-81
2022/03/26 07:37:43;;;;;;;23.00;11.25;;;;;;;17.98;29.01;100846.22;4472640;32;35315;-81
2022/03/26 07:40:17;;;;;;;23.25;11.52;;;;;;;18.40;27.70;100844.44;4472559;32;34166;-80
2022/03/26 07:42:45;;;;;;;19.45;10.75;;;;;;;18.74;26.80;100843.81;4471831;32;33333;-80
2022/03/26 07:45:12;;;;;;;20.88;10.07;;;;;;;17.87;25.72;100844.19;4472357;32;32399;-76
2022/03/26 07:47:41;;;;;;;19.87;10.95;;;;;;;17.86;25.71;100845.25;4458865;32;34013;-76
2022/03/26 07:50:09;;;;;;;20.12;9.65;;;;;;;18.54;26.13;100848.75;4472098;32;32470;-80
2022/03/26 07:52:37;;;;;;;25.70;12.65;;;;;;;18.67;24.65;100856.97;4485185;32;33252;-81
2022/03/26 07:55:05;;;;;;;23.00;11.23;;;;;;;18.41;24.81;100851.69;4472491;32;33797;-81
2022/03/26 07:57:33;;;;;;;23.62;12.15;;;;;;;18.83;25.19;100844.34;4485242;32;34209;-81
2022/03/26 08:00:01;;;;;;;21.27;12.00;;;;;;;18.49;24.96;100837.50;4459216;32;32062;-81
2022/03/26 08:02:39;;;;;;;21.40;10.85;;;;;;;18.59;24.41;100850.84;4473476;32;31856;-81
2022/03/26 08:05:07;;;;;;;20.90;11.27;;;;;;;19.01;24.59;100852.62;4472170;32;32099;-81
2022/03/26 08:07:35;;;;;;;18.83;11.32;;;;;;;19.01;23.78;100855.41;4472221;32;34195;-81
2022/03/26 08:10:02;;;;;;;20.10;11.32;;;;;;;18.24;24.23;100850.59;4472399;32;34212;-81
2022/03/26 08:12:30;;;;;;;19.30;11.68;;;;;;;18.70;24.40;100850.09;4472190;32;33485;-81
2022/03/26 08:14:59;;;;;;;19.67;10.05;;;;;;;19.05;24.55;100839.94;4487615;31;34061;-81
2022/03/26 08:17:29;;;;;;;28.87;17.42;;;;;;;19.26;24.06;100830.22;4475111;31;34299;-81
2022/03/26 08:19:57;;;;;;;25.83;11.98;;;;;;;19.04;24.14;100838.25;4461633;31;33874;-82
2022/03/26 08:22:25;;;;;;;16.60;10.00;;;;;;;18.87;24.09;100839.12;4474461;31;31930;-81
2022/03/26 08:24:53;;;;;;;19.20;10.68;;;;;;;19.17;23.87;100839.97;4474654;31;32145;-81
2022/03/26 08:27:22;;;;;;;19.95;9.77;;;;;;;19.35;24.59;100834.34;4474325;31;32961;-81
2022/03/26 08:29:52;;;;;;;22.65;12.13;;;;;;;19.86;23.79;100829.22;4474460;31;33327;-81
2022/03/26 08:32:22;;;;;;;21.00;10.18;;;;;;;19.68;23.13;100836.59;4474645;31;31902;-80
2022/03/26 08:34:50;;;;;;;16.62;9.88;;;;;;;20.33;23.49;100830.84;4474724;31;33246;-81
2022/03/26 08:37:17;;;;;;;17.90;8.95;;;;;;;20.74;22.77;100840.13;4474653;31;34947;-81
2022/03/26 08:39:45;;;;;;;13.90;8.10;;;;;;;20.74;22.65;100825.31;4474598;31;33874;-81
2022/03/26 08:42:13;;;;;;;17.75;9.77;;;;;;;20.85;22.54;100836.41;4462097;31;31847;-81
2022/03/26 08:44:43;;;;;;;14.95;7.53;;;;;;;20.94;21.86;100832.12;4474323;31;33331;-82
2022/03/26 08:47:11;;;;;;;15.18;8.20;;;;;;;21.19;21.76;100840.13;4474494;31;35073;-81
2022/03/26 08:49:40;;;;;;;12.57;7.50;;;;;;;20.96;21.65;100834.66;4474289;31;32438;-79
2022/03/26 08:52:08;;;;;;;14.38;7.70;;;;;;;20.95;21.94;100830.19;4461545;31;31715;-81
2022/03/26 08:54:36;;;;;;;14.68;8.10;;;;;;;20.79;23.03;100831.00;4474247;31;34423;-81
2022/03/26 08:57:04;;;;;;;17.48;8.18;;;;;;;21.56;23.65;100831.31;4461469;31;33867;-81
2022/03/26 08:59:31;;;;;;;13.50;8.23;;;;;;;21.35;22.55;100841.31;4474127;31;33671;-81
2022/03/26 09:01:59;;;;;;;16.73;8.73;;;;;;;21.63;22.48;100830.03;4461512;31;31707;-81
2022/03/26 09:04:28;;;;;;;16.90;8.75;;;;;;;21.84;21.46;100834.00;4474808;31;33808;-81
2022/03/26 09:06:56;;;;;;;17.73;9.80;;;;;;;21.80;21.39;100837.56;4461554;31;32933;-81
2022/03/26 09:09:24;;;;;;;17.45;9.20;;;;;;;21.62;22.79;100824.69;4461165;31;33167;-81
2022/03/26 09:11:53;;;;;;;16.05;8.82;;;;;;;21.97;22.10;100832.81;4474300;31;34330;-81
2022/03/26 09:14:21;;;;;;;18.12;10.30;;;;;;;21.80;22.46;100826.41;4474499;31;34439;-81
2022/03/26 09:16:49;;;;;;;14.25;8.25;;;;;;;22.23;21.12;100834.88;4473899;31;33925;-81
2022/03/26 09:19:16;;;;;;;17.12;9.20;;;;;;;21.53;22.70;100834.59;4474224;31;33779;-81
2022/03/26 09:21:45;;;;;;;20.92;12.35;;;;;;;22.05;22.20;100824.03;4474375;31;34166;-81
2022/03/26 09:24:16;;;;;;;16.52;9.50;;;;;;;21.58;22.01;100834.69;4474123;31;33440;-81
2022/03/26 09:26:43;;;;;;;19.37;8.68;;;;;;;21.76;22.13;100825.22;4474864;31;34629;-82
2022/03/26 09:29:11;;;;;;;15.32;8.02;;;;;;;22.27;20.98;100824.88;4473877;31;33399;-82
2022/03/26 09:31:39;;;;;;;17.12;9.65;;;;;;;22.15;21.24;100821.34;4474158;31;33395;-82
2022/03/26 09:34:07;;;;;;;14.30;8.48;;;;;;;22.42;20.76;100813.06;4473820;31;32293;-81
2022/03/26 09:36:34;;;;;;;16.45;8.57;;;;;;;22.75;21.16;100811.22;4460820;31;33474;-82
2022/03/26 09:39:03;;;;;;;15.30;8.30;;;;;;;22.40;21.28;100814.41;4473799;31;33023;-82
2022/03/26 09:41:31;;;;;;;27.17;16.98;;;;;;;22.15;21.05;100818.56;4473871;31;33316;-81
2022/03/26 09:43:59;;;;;;;16.83;8.27;;;;;;;21.03;22.61;100821.41;4473791;31;33924;-81
2022/03/26 09:46:28;;;;;;;13.65;7.80;;;;;;;20.17;22.26;100814.88;4473954;31;34266;-81
2022/03/26 09:48:56;;;;;;;18.67;7.82;;;;;;;21.59;21.17;100817.69;4474066;31;33823;-81
2022/03/26 09:51:24;;;;;;;14.63;8.23;;;;;;;22.26;22.00;100813.94;4473063;31;32658;-83
2022/03/26 09:53:53;;;;;;;19.05;8.70;;;;;;;22.61;20.03;100817.22;4460851;31;32301;-80
2022/03/26 09:56:22;;;;;;;15.48;8.57;;;;;;;22.32;20.21;100824.09;4473754;31;34464;-80
2022/03/26 09:58:53;;;;;;;13.50;7.87;;;;;;;22.70;20.56;100816.75;4473169;31;33430;-79
2022/03/26 10:01:22;;;;;;;14.90;7.65;;;;;;;21.99;20.48;100814.69;4473584;31;31934;-79
2022/03/26 10:04:11;;;;;;;19.12;10.00;;;;;;;21.57;19.91;100827.41;4460892;31;32287;-79
2022/03/26 10:06:55;;;;;;;15.32;7.90;;;;;;;21.82;22.16;100818.59;4475100;31;32960;-79
2022/03/26 10:09:36;;;;;;;11.20;6.28;;;;;;;21.88;20.15;100823.16;4475583;31;34191;-79
2022/03/26 10:12:07;;;;;;;12.25;6.47;;;;;;;22.54;20.49;100816.56;4475419;31;31915;-79
2022/03/26 10:14:59;;;;;;;14.05;7.18;;;;;;;22.28;19.03;100812.59;4475521;31;34767;-79
2022/03/26 10:17:37;;;;;;;12.63;6.47;;;;;;;22.66;18.90;100810.84;4488427;31;34450;-79
2022/03/26 10:20:07;;;;;;;12.65;6.43;;;;;;;23.15;19.91;100803.28;4475379;31;32445;-79
2022/03/26 10:22:48;;;;;;;13.25;6.72;;;;;;;23.30;18.04;100806.22;4475313;31;31809;-78
2022/03/26 10:25:21;;;;;;;12.45;6.30;;;;;;;22.78;17.46;100807.88;4475670;31;33417;-78
2022/03/26 10:27:59;;;;;;;13.07;6.22;;;;;;;22.70;17.63;100798.03;4475522;31;35298;-78
2022/03/26 10:33:22;;;;;;;59.75;36.85;;;;;;;23.13;17.81;100788.69;4488178;31;32786;-78
2022/03/26 10:35:59;;;;;;;18.50;7.68;;;;;;;22.60;17.47;100800.69;4475463;31;33712;-78
2022/03/26 10:38:28;;;;;;;12.35;7.10;;;;;;;22.88;17.80;100796.81;4475400;31;34506;-78
2022/03/26 10:41:06;;;;;;;13.55;7.47;;;;;;;23.54;17.28;100783.47;4475909;31;32183;-78
2022/03/26 10:43:39;;;;;;;14.23;7.65;;;;;;;22.61;17.45;100789.25;4475836;31;34128;-78
2022/03/26 10:46:09;;;;;;;14.35;7.30;;;;;;;22.50;17.67;100787.41;4462574;31;33571;-78
2022/03/26 10:48:38;;;;;;;13.80;6.72;;;;;;;22.37;18.23;100790.59;4475240;31;33078;-78
2022/03/26 10:51:13;;;;;;;16.90;7.37;;;;;;;22.48;17.54;100789.63;4475117;31;33365;-78
2022/03/26 10:53:46;;;;;;;18.27;6.55;;;;;;;22.42;19.25;100782.28;4474923;31;33096;-80
2022/03/26 10:56:17;;;;;;;17.15;7.80;;;;;;;23.04;17.72;100773.47;4475521;31;34469;-82
2022/03/26 10:58:44;;;;;;;14.60;7.70;;;;;;;22.21;17.96;100774.72;4474899;31;32893;-81
2022/03/26 11:01:15;;;;;;;13.15;7.37;;;;;;;22.64;18.09;100769.13;4475277;31;34122;-80
2022/03/26 11:03:43;;;;;;;13.18;7.45;;;;;;;21.56;18.88;100767.06;4475743;31;33253;-81
2022/03/26 11:06:15;;;;;;;15.75;7.55;;;;;;;22.66;18.30;100757.69;4462408;31;32138;-82
2022/03/26 11:08:45;;;;;;;14.65;8.20;;;;;;;23.02;18.41;100761.69;4475453;31;34452;-80
2022/03/26 11:11:14;;;;;;;15.52;7.25;;;;;;;22.62;18.56;100765.75;4488302;31;33656;-81
2022/03/26 11:13:47;;;;;;;14.90;7.87;;;;;;;22.69;17.51;100762.75;4488627;31;33524;-81
2022/03/26 11:16:24;;;;;;;14.77;7.70;;;;;;;22.30;18.42;100764.78;4461937;31;32129;-81
2022/03/26 11:19:13;;;;;;;13.73;7.60;;;;;;;22.40;18.28;100758.47;4487991;31;34550;-81
2022/03/26 11:21:53;;;;;;;12.80;6.75;;;;;;;22.66;17.23;100754.88;4488710;31;34309;-81
2022/03/26 11:24:41;;;;;;;19.42;7.85;;;;;;;22.55;17.65;100753.06;4488226;31;33306;-81
2022/03/26 11:27:50;;;;;;;15.93;9.10;;;;;;;22.42;17.38;100743.13;4474256;31;32140;-78
2022/03/26 11:30:39;;;;;;;17.50;8.70;;;;;;;22.56;16.63;100730.41;4463872;32;33432;-78
2022/03/26 11:33:13;;;;;;;14.25;8.38;;;;;;;23.58;16.71;100731.38;4465013;32;32396;-79